ADDS METAR Data INFO
IDs: Format: Raw Decoded Include TAF

Data at: 2047 UTC 24 Jun 2018

KEMM 242035Z AUTO 00000KT 10SM CLR 20/00 A3023 RMK AO2
KEMM 242015Z AUTO 31004KT 10SM CLR 19/00 A3023 RMK AO2
KEMM 241955Z AUTO 01007KT 10SM CLR 19/00 A3023 RMK AO2
KEMM 241935Z AUTO 35004KT 10SM CLR 18/00 A3023 RMK AO2
KEMM 241915Z AUTO 32005KT 10SM CLR 18/00 A3023 RMK AO2
KEMM 241855Z AUTO 27008KT 220V320 10SM SCT055 18/00 A3024 RMK AO2
KEMM 241835Z AUTO 32004KT 10SM SCT055 17/00 A3024 RMK AO2
KEMM 241815Z AUTO 02005G14KT 10SM CLR 17/00 A3024 RMK AO2
KEMM 241755Z AUTO 00000KT 10SM CLR 17/00 A3024 RMK AO2
KEMM 241735Z AUTO 27008KT 240V300 10SM CLR 16/00 A3024 RMK AO2
KEMM 241715Z AUTO 25004KT 10SM CLR 16/00 A3023 RMK AO2
KEMM 241655Z AUTO 35005KT 10SM SCT046 16/01 A3023 RMK AO2
KEMM 241635Z AUTO 26008KT 10SM SCT046 14/01 A3023 RMK AO2
KEMM 241615Z AUTO 23013G16KT 10SM CLR 15/01 A3021 RMK AO2
KEMM 241555Z AUTO 26004KT 10SM CLR 14/00 A3022 RMK AO2
KEMM 241535Z AUTO 25008KT 10SM CLR 13/02 A3021 RMK AO2
KEMM 241515Z AUTO 28006KT 10SM CLR 13/02 A3022 RMK AO2
KEMM 241455Z AUTO 34008KT 10SM CLR 12/02 A3022 RMK AO2
KEMM 241435Z AUTO 00000KT 10SM CLR 12/02 A3022 RMK AO2
KEMM 241415Z AUTO 00000KT 10SM CLR 11/02 A3021 RMK AO2
KEMM 241355Z AUTO 27004KT 10SM CLR 10/02 A3021 RMK AO2
KEMM 241335Z AUTO 34005KT 10SM CLR 08/02 A3021 RMK AO2
KEMM 241315Z AUTO 36004KT 10SM CLR 08/02 A3020 RMK AO2
KEMM 241255Z AUTO 00000KT 10SM CLR 07/02 A3020 RMK AO2
KEMM 241235Z AUTO 34005KT 10SM CLR 06/01 A3019 RMK AO2
KEMM 241215Z AUTO 31005KT 10SM CLR 05/02 A3018 RMK AO2
KEMM 241155Z AUTO 28008KT 10SM CLR 05/01 A3018 RMK AO2
KEMM 241135Z AUTO 26006KT 10SM CLR 05/01 A3017 RMK AO2
KEMM 241115Z AUTO 25006KT 10SM CLR 06/02 A3016 RMK AO2
KEMM 241055Z AUTO 26005KT 10SM CLR 07/01 A3015 RMK AO2
KEMM 241035Z AUTO 28005KT 10SM CLR 07/01 A3015 RMK AO2
KEMM 241015Z AUTO 35006KT 10SM SCT095 07/02 A3015 RMK AO2
KEMM 240955Z AUTO 34006KT 10SM SCT095 07/02 A3015 RMK AO2
KEMM 240935Z AUTO 36004KT 10SM SCT095 07/01 A3015 RMK AO2
KEMM 240915Z AUTO 28006KT 10SM BKN095 07/01 A3015 RMK AO2
KEMM 240855Z AUTO 28005KT 10SM SCT100 06/01 A3014 RMK AO2
KEMM 240835Z AUTO 35004KT 10SM CLR 06/01 A3015 RMK AO2
KEMM 240815Z AUTO 30005KT 10SM CLR 06/01 A3014 RMK AO2
KEMM 240755Z AUTO 29004KT 10SM CLR 06/01 A3015 RMK AO2
KEMM 240735Z AUTO 36004KT 10SM CLR 07/01 A3014 RMK AO2
KEMM 240715Z AUTO 30008KT 10SM CLR 07/01 A3014 RMK AO2
KEMM 240655Z AUTO 29009KT 10SM CLR 07/01 A3014 RMK AO2
KEMM 240635Z AUTO 28008KT 10SM CLR 07/01 A3015 RMK AO2
KEMM 240615Z AUTO 29005KT 10SM CLR 07/00 A3015 RMK AO2
KEMM 240555Z AUTO 26004KT 10SM CLR 07/00 A3014 RMK AO2
KEMM 240535Z AUTO 34003KT 10SM CLR 07/00 A3013 RMK AO2
KEMM 240515Z AUTO 31007KT 10SM CLR 08/00 A3013 RMK AO2
KEMM 240455Z AUTO 28006KT 10SM CLR 08/00 A3013 RMK AO2
KEMM 240435Z AUTO 33004KT 10SM CLR 09/00 A3013 RMK AO2
KEMM 240415Z AUTO 35008KT 10SM CLR 10/00 A3012 RMK AO2
KEMM 240355Z AUTO 35008KT 10SM CLR 10/00 A3012 RMK AO2
KEMM 240335Z AUTO 35011KT 10SM CLR 10/00 A3010 RMK AO2
KEMM 240315Z AUTO 32012KT 10SM CLR 11/00 A3008 RMK AO2
KEMM 240255Z AUTO 32014G19KT 10SM CLR 12/00 A3008 RMK AO2
KEMM 240235Z AUTO 31016G20KT 10SM CLR 13/00 A3007 RMK AO2
KEMM 240215Z AUTO 32016G23KT 10SM CLR 13/01 A3007 RMK AO2
KEMM 240155Z AUTO 32015G22KT 10SM CLR 15/02 A3006 RMK AO2
KEMM 240135Z AUTO 33018G25KT 10SM CLR 16/02 A3005 RMK AO2
KEMM 240115Z AUTO 29017G28KT 10SM CLR 17/M02 A3003 RMK AO2
KEMM 240055Z AUTO 30019G26KT 10SM CLR 18/M03 A3002 RMK AO2
KEMM 240035Z AUTO 28022G30KT 10SM CLR 19/M03 A3002 RMK AO2
KEMM 240015Z AUTO 28024G30KT 10SM CLR 18/M01 A3002 RMK AO2
KEMM 232355Z AUTO 29019G30KT 10SM CLR 17/00 A3002 RMK AO2
KEMM 232335Z AUTO 28018G27KT 10SM CLR 18/00 A3001 RMK AO2
KEMM 232315Z AUTO 26021G29KT 10SM CLR 20/00 A3001 RMK AO2
KEMM 232255Z AUTO 27018G24KT 10SM SCT070 18/00 A3001 RMK AO2
KEMM 232235Z AUTO 28017G25KT 10SM CLR 20/00 A3001 RMK AO2
KEMM 232215Z AUTO 24026G33KT 10SM CLR 22/M01 A3000 RMK AO2
KEMM 232155Z AUTO 24026G32KT 10SM CLR 21/M01 A3000 RMK AO2
KEMM 232135Z AUTO 26025G37KT 10SM CLR 22/M01 A3000 RMK AO2
KEMM 232115Z AUTO 25024G32KT 10SM CLR 22/00 A3001 RMK AO2
KEMM 232055Z AUTO 25022G30KT 10SM CLR 22/00 A3002 RMK AO2
KEMM 232035Z AUTO 27022G35KT 240V300 10SM CLR 22/M01 A3001 RMK AO2
KEMM 232015Z AUTO 27026G36KT 10SM CLR 22/M01 A3002 RMK AO2
KEMM 231955Z AUTO 26025G33KT 10SM CLR 22/M01 A3002 RMK AO2
KEMM 231935Z AUTO 25016G26KT 10SM CLR 21/00 A3002 RMK AO2
KEMM 231915Z AUTO 25018G27KT 10SM CLR 20/00 A3003 RMK AO2
KEMM 231855Z AUTO 30016G21KT 10SM CLR 21/01 A3003 RMK AO2
KEMM 231835Z AUTO 29014G19KT 10SM CLR 21/02 A3004 RMK AO2
KEMM 231815Z AUTO 27015G23KT 10SM CLR 21/02 A3005 RMK AO2
KEMM 231755Z AUTO 28013G20KT 10SM CLR 21/01 A3005 RMK AO2
KEMM 231735Z AUTO 27013G22KT 10SM CLR 21/01 A3006 RMK AO2
KEMM 231715Z AUTO 27013G24KT 10SM CLR 20/01 A3007 RMK AO2
KEMM 231655Z AUTO 27015G25KT 10SM CLR 20/00 A3007 RMK AO2
KEMM 231635Z AUTO 27014G21KT 10SM CLR 20/00 A3007 RMK AO2
KEMM 231615Z AUTO 25014KT 10SM CLR 19/00 A3007 RMK AO2
KEMM 231555Z AUTO 25013G19KT 10SM CLR 18/00 A3008 RMK AO2
KEMM 231535Z AUTO 25011G15KT 10SM CLR 17/01 A3008 RMK AO2
KEMM 231515Z AUTO 00000KT 10SM CLR 15/03 A3010 RMK AO2
KEMM 231455Z AUTO 00000KT 10SM CLR 14/05 A3010 RMK AO2
KEMM 231435Z AUTO 00000KT 10SM CLR 12/04 A3010 RMK AO2
KEMM 231415Z AUTO 00000KT 10SM CLR 13/04 A3010 RMK AO2
KEMM 231355Z AUTO 35003KT 10SM CLR 12/04 A3010 RMK AO2
KEMM 231335Z AUTO 34003KT 10SM CLR 10/03 A3010 RMK AO2
KEMM 231315Z AUTO 33006KT 10SM CLR 08/02 A3010 RMK AO2
KEMM 231255Z AUTO 34009KT 10SM CLR 06/02 A3010 RMK AO2
KEMM 231235Z AUTO 34007KT 10SM CLR 04/02 A3010 RMK AO2
KEMM 231215Z AUTO 35007KT 10SM CLR 05/01 A3010 RMK AO2
KEMM 231155Z AUTO 34006KT 10SM CLR 04/02 A3010 RMK AO2
KEMM 231135Z AUTO 34007KT 10SM CLR 06/02 A3010 RMK AO2
KEMM 231115Z AUTO 34010KT 10SM CLR 06/02 A3010 RMK AO2
KEMM 231055Z AUTO 35006KT 10SM CLR 05/02 A3010 RMK AO2
KEMM 231035Z AUTO 35004KT 10SM CLR 05/02 A3010 RMK AO2
KEMM 231015Z AUTO 34005KT 10SM CLR 05/02 A3010 RMK AO2
KEMM 230955Z AUTO 35010KT 10SM CLR 05/02 A3010 RMK AO2
KEMM 230935Z AUTO 35004KT 10SM CLR 05/02 A3010 RMK AO2
KEMM 230915Z AUTO 36004KT 10SM CLR 07/03 A3011 RMK AO2
KEMM 230855Z AUTO 35006KT 10SM CLR 06/03 A3012 RMK AO2